createdAt,value
2018-12-07T00:07:56.953Z,0.90
2018-12-07T00:10:27.005Z,0.93
2018-12-07T00:12:56.878Z,0.50
2018-12-07T00:15:26.613Z,0.60
2018-12-07T00:17:56.366Z,0.57
2018-12-07T00:20:26.235Z,0.60
2018-12-07T00:22:56.760Z,0.40
2018-12-07T00:25:26.597Z,0.50
2018-12-07T00:27:56.349Z,0.70
2018-12-07T00:30:26.123Z,0.50
2018-12-07T00:32:55.855Z,0.60
2018-12-07T00:35:25.629Z,0.40
2018-12-07T00:37:55.647Z,0.50
2018-12-07T00:40:25.410Z,0.43
2018-12-07T00:42:55.213Z,0.50
2018-12-07T00:45:25.112Z,0.40
2018-12-07T00:47:54.858Z,0.67
2018-12-07T00:50:24.674Z,0.63
2018-12-07T00:52:54.448Z,0.67
2018-12-07T00:55:43.128Z,0.60
2018-12-07T00:58:12.903Z,0.57
2018-12-07T01:00:42.724Z,0.70
2018-12-07T01:03:12.581Z,0.63
2018-12-07T01:05:43.185Z,0.70
2018-12-07T01:08:13.244Z,1.07
2018-12-07T01:10:43.030Z,0.60
2018-12-07T01:13:12.782Z,0.63
2018-12-07T01:15:42.580Z,0.77
2018-12-07T01:18:12.389Z,0.50
2018-12-07T01:23:37.774Z,0.80
2018-12-07T01:26:07.847Z,0.77
2018-12-07T01:28:37.929Z,0.90
2018-12-07T01:31:07.965Z,0.40
2018-12-07T01:39:10.971Z,0.83
2018-12-07T01:41:41.004Z,0.67
2018-12-07T01:44:10.776Z,0.57
2018-12-07T01:46:40.563Z,0.60
2018-12-07T01:49:10.429Z,0.53
2018-12-07T01:51:40.223Z,0.73
2018-12-07T02:07:50.406Z,1.00
2018-12-07T02:10:20.406Z,1.20
2018-12-07T02:18:20.473Z,1.10
2018-12-07T02:20:50.495Z,1.50
2018-12-07T02:23:23.062Z,1.30
2018-12-07T02:25:52.834Z,1.83
2018-12-07T02:28:22.613Z,1.20
2018-12-07T02:30:52.348Z,1.43
2018-12-07T02:33:22.149Z,1.70
2018-12-07T02:36:12.799Z,1.17
2018-12-07T02:38:42.921Z,2.07
2018-12-07T02:41:12.741Z,1.87
2018-12-07T02:43:42.546Z,1.50
2018-12-07T02:46:12.388Z,1.50
2018-12-07T02:48:42.364Z,1.80
2018-12-07T02:59:29.787Z,1.83
2018-12-07T03:12:58.273Z,2.07
2018-12-07T03:15:28.328Z,2.20
2018-12-07T03:17:58.075Z,1.83
2018-12-07T03:20:27.867Z,1.97
2018-12-07T03:28:09.235Z,2.50
2018-12-07T03:30:39.038Z,2.30
2018-12-07T03:33:08.781Z,2.57
2018-12-07T03:35:38.626Z,2.77
2018-12-07T03:38:08.424Z,2.13
2018-12-07T03:40:38.179Z,2.60
2018-12-07T03:43:08.049Z,2.40
2018-12-07T03:45:37.810Z,2.90
2018-12-07T03:48:07.578Z,2.53
2018-12-07T03:50:37.608Z,2.17
2018-12-07T03:53:07.373Z,2.87
2018-12-07T03:55:37.152Z,2.77
2018-12-07T03:58:07.074Z,2.10
2018-12-07T04:00:36.935Z,2.23
2018-12-07T04:03:06.713Z,2.53
2018-12-07T04:05:36.712Z,2.80
2018-12-07T04:08:06.555Z,2.30
2018-12-07T04:10:36.367Z,2.43
2018-12-07T04:13:06.561Z,2.90
2018-12-07T04:15:36.308Z,2.37
2018-12-07T04:18:06.078Z,2.77
2018-12-07T04:20:35.832Z,2.33
2018-12-07T04:23:05.603Z,2.80
2018-12-07T04:25:35.605Z,3.00
2018-12-07T04:28:05.757Z,2.50
2018-12-07T04:30:35.513Z,2.60
2018-12-07T04:33:05.312Z,2.33
2018-12-07T04:35:35.351Z,2.90
2018-12-07T04:43:42.246Z,2.50
2018-12-07T04:46:12.015Z,2.67
2018-12-07T04:48:41.882Z,2.60
2018-12-07T04:51:11.901Z,2.40
2018-12-07T04:54:02.222Z,2.40
2018-12-07T04:56:33.764Z,2.77
2018-12-07T05:33:59.123Z,2.60
2018-12-07T05:39:28.358Z,2.23
2018-12-07T05:49:58.366Z,2.73
2018-12-07T05:52:28.650Z,2.60
2018-12-07T05:54:58.417Z,2.80
2018-12-07T05:57:28.166Z,2.53
2018-12-07T05:59:58.296Z,2.37
2018-12-07T06:02:28.481Z,2.40
2018-12-07T06:04:58.497Z,2.90
2018-12-07T06:07:28.702Z,2.57
2018-12-07T06:09:58.817Z,2.60
2018-12-07T06:12:28.592Z,2.63
2018-12-07T06:31:18.837Z,2.40
2018-12-07T06:33:48.725Z,2.30
2018-12-07T06:36:18.526Z,1.83
2018-12-07T06:38:48.647Z,1.63
2018-12-07T06:41:18.532Z,1.77
2018-12-07T06:43:48.563Z,2.10
2018-12-07T06:46:18.592Z,1.47
2018-12-07T06:54:56.917Z,1.87
2018-12-07T06:57:26.940Z,1.97
2018-12-07T06:59:56.681Z,1.90
2018-12-07T07:02:26.460Z,1.90
2018-12-07T07:04:56.214Z,1.87
2018-12-07T07:15:49.462Z,2.10
2018-12-07T07:18:19.336Z,2.13
2018-12-07T07:20:49.138Z,2.47
2018-12-07T07:23:19.197Z,2.30
2018-12-07T07:25:48.985Z,2.20
2018-12-07T07:28:19.085Z,2.53
2018-12-07T07:30:48.885Z,1.83
2018-12-07T07:33:18.696Z,2.47
2018-12-07T07:35:48.467Z,2.20
2018-12-07T07:38:18.554Z,2.67
2018-12-07T07:40:48.349Z,2.43
2018-12-07T07:43:18.144Z,2.20
2018-12-07T07:45:47.909Z,2.40
2018-12-07T07:48:17.812Z,2.00
2018-12-07T07:50:48.001Z,2.17
2018-12-07T07:53:17.825Z,2.07
2018-12-07T07:55:47.887Z,1.90
2018-12-07T07:58:38.106Z,2.60
2018-12-07T08:01:08.205Z,2.03
2018-12-07T08:03:38.013Z,1.93
2018-12-07T08:06:08.077Z,2.20
2018-12-07T08:08:38.120Z,1.77
2018-12-07T08:11:08.006Z,1.60
2018-12-07T08:13:37.790Z,1.30
2018-12-07T08:16:07.574Z,1.57
2018-12-07T08:18:37.490Z,1.20
2018-12-07T08:21:07.262Z,1.43
2018-12-07T08:23:37.076Z,1.60
2018-12-07T08:26:07.164Z,1.27
2018-12-07T08:28:37.032Z,1.50
2018-12-07T08:31:07.159Z,1.47
2018-12-07T08:33:37.371Z,1.33
2018-12-07T08:36:07.490Z,1.60
2018-12-07T08:38:38.124Z,1.13
2018-12-07T08:41:07.970Z,1.30
2018-12-07T08:43:37.758Z,1.10
2018-12-07T08:46:07.796Z,1.40
2018-12-07T08:48:37.834Z,1.50
2018-12-07T08:51:07.651Z,1.03
2018-12-07T08:53:37.440Z,0.90
2018-12-07T08:56:07.243Z,1.10
2018-12-07T08:58:37.015Z,1.20
2018-12-07T09:01:06.815Z,1.20
2018-12-07T09:03:36.582Z,0.90
2018-12-07T09:06:06.371Z,1.03
2018-12-07T09:08:36.144Z,0.90
2018-12-07T09:21:47.953Z,1.00
2018-12-07T09:24:17.845Z,1.37
2018-12-07T09:26:47.756Z,0.87
2018-12-07T09:29:17.521Z,0.97
2018-12-07T09:42:47.479Z,0.63
2018-12-07T09:45:17.319Z,0.57
2018-12-07T09:47:49.969Z,0.77
2018-12-07T09:50:19.786Z,0.70
2018-12-07T09:52:49.591Z,1.00
2018-12-07T09:55:19.531Z,0.67
2018-12-07T09:57:49.416Z,0.67
2018-12-07T10:00:19.232Z,0.80
2018-12-07T10:02:49.015Z,0.90
2018-12-07T10:05:19.118Z,0.70
2018-12-07T10:07:49.002Z,0.43
2018-12-07T10:10:19.074Z,0.80
2018-12-07T10:12:49.478Z,0.50
2018-12-07T10:15:19.328Z,0.40
2018-12-07T10:17:49.136Z,0.53
2018-12-07T10:20:18.955Z,0.70
2018-12-07T10:22:48.732Z,0.50
2018-12-07T10:25:18.554Z,0.70
2018-12-07T10:27:49.104Z,0.30
2018-12-07T10:30:18.907Z,0.70
2018-12-07T10:32:48.695Z,0.50
2018-12-07T10:35:18.726Z,0.47
2018-12-07T10:37:48.557Z,0.60
2018-12-07T10:40:18.362Z,0.50
2018-12-07T10:42:48.505Z,0.60
2018-12-07T10:45:18.313Z,0.23
2018-12-07T10:47:50.432Z,0.30
2018-12-07T10:50:20.425Z,0.20
2018-12-07T10:52:50.216Z,0.30
2018-12-07T10:55:20.030Z,0.37
2018-12-07T10:57:49.831Z,0.27
2018-12-07T11:00:38.266Z,0.70
2018-12-07T11:03:26.702Z,0.40
2018-12-07T11:06:15.136Z,0.30
2018-12-07T11:09:03.547Z,0.30
2018-12-07T11:11:52.103Z,0.30
2018-12-07T11:14:40.865Z,0.47
2018-12-07T11:17:29.333Z,0.20
2018-12-07T11:20:17.871Z,0.30
2018-12-07T11:23:06.314Z,0.20
2018-12-07T11:25:54.732Z,0.10
2018-12-07T11:28:43.163Z,0.50
2018-12-07T11:31:31.908Z,0.80
2018-12-07T11:34:20.651Z,0.20
2018-12-07T11:36:50.732Z,0.80
2018-12-07T11:39:20.513Z,0.30
2018-12-07T11:41:50.306Z,0.30
2018-12-07T11:44:20.074Z,0.30
2018-12-07T11:46:49.863Z,0.20
2018-12-07T11:52:10.744Z,0.20
2018-12-07T11:54:40.523Z,0.40
2018-12-07T11:57:10.609Z,0.23
2018-12-07T11:59:40.368Z,0.20
2018-12-07T12:02:10.203Z,0.23
2018-12-07T12:04:39.976Z,0.20
2018-12-07T12:07:09.839Z,0.40
2018-12-07T12:09:39.629Z,0.30
2018-12-07T12:12:09.462Z,0.10
2018-12-07T12:14:39.235Z,0.30
2018-12-07T12:17:09.366Z,0.33
2018-12-07T12:19:39.148Z,0.10
2018-12-07T12:22:08.985Z,0.30
2018-12-07T12:24:39.085Z,0.30
2018-12-07T12:27:09.181Z,0.73
2018-12-07T12:29:38.956Z,0.20
2018-12-07T12:32:09.027Z,0.20
2018-12-07T12:34:38.863Z,0.23
2018-12-07T12:37:08.691Z,0.40
2018-12-07T12:39:38.508Z,0.13
2018-12-07T12:42:08.274Z,0.93
2018-12-07T12:44:38.192Z,0.60
2018-12-07T12:47:08.025Z,0.20
2018-12-07T12:49:37.826Z,0.37
2018-12-07T12:52:07.627Z,0.30
2018-12-07T12:54:37.513Z,0.30
2018-12-07T12:57:07.394Z,0.20
2018-12-07T12:59:37.205Z,0.20
2018-12-07T13:02:06.104Z,0.20
2018-12-07T13:04:36.146Z,0.50
2018-12-07T13:07:06.223Z,0.47
2018-12-07T13:09:36.013Z,0.30
2018-12-07T13:12:05.814Z,0.30
2018-12-07T13:14:35.951Z,0.30
2018-12-07T13:17:06.076Z,0.20
2018-12-07T13:19:37.915Z,0.20
2018-12-07T13:22:07.951Z,0.30
2018-12-07T13:24:37.776Z,0.27
2018-12-07T13:27:07.556Z,0.43
2018-12-07T13:29:37.612Z,0.50
2018-12-07T13:32:07.382Z,0.37
2018-12-07T13:34:37.466Z,0.30
2018-12-07T13:37:07.275Z,0.30
2018-12-07T13:39:37.352Z,0.27
2018-12-07T13:42:07.137Z,0.30
2018-12-07T13:44:37.153Z,0.20
2018-12-07T13:47:07.141Z,0.37
2018-12-07T13:49:37.047Z,0.30
2018-12-07T13:52:06.853Z,0.20
2018-12-07T13:54:36.787Z,0.67
2018-12-07T14:00:15.915Z,0.30
2018-12-07T14:02:46.077Z,0.30
2018-12-07T14:05:15.963Z,0.30
2018-12-07T14:07:45.900Z,0.40
2018-12-07T14:10:15.815Z,0.13
2018-12-07T14:12:45.562Z,0.60
2018-12-07T14:15:15.667Z,0.20
2018-12-07T14:17:45.607Z,0.23
2018-12-07T14:20:15.583Z,0.23
2018-12-07T14:22:45.663Z,0.20
2018-12-07T14:25:17.381Z,0.60
2018-12-07T14:27:47.397Z,0.20
2018-12-07T14:30:17.437Z,0.30
2018-12-07T14:32:47.617Z,1.13
2018-12-07T14:35:17.639Z,7.73
2018-12-07T14:37:47.427Z,1.87
2018-12-07T14:40:17.405Z,1.70
2018-12-07T14:42:47.693Z,0.33
2018-12-07T14:45:17.592Z,0.23
2018-12-07T14:47:47.387Z,0.40
2018-12-07T14:50:17.687Z,0.70
2018-12-07T14:53:25.227Z,0.60
2018-12-07T14:55:55.143Z,0.40
2018-12-07T14:58:24.978Z,0.40
2018-12-07T15:00:54.802Z,0.50
2018-12-07T15:03:24.580Z,0.37
2018-12-07T15:05:54.496Z,0.43
2018-12-07T15:08:24.552Z,0.40
2018-12-07T15:10:54.729Z,0.70
2018-12-07T15:13:24.629Z,0.30
2018-12-07T15:15:54.545Z,0.30
2018-12-07T15:18:24.418Z,0.20
2018-12-07T15:20:54.255Z,0.50
2018-12-07T15:23:24.029Z,0.20
2018-12-07T15:25:53.907Z,0.30
2018-12-07T15:28:23.928Z,0.40
2018-12-07T15:30:53.767Z,0.43
2018-12-07T15:33:23.657Z,0.50
2018-12-07T15:35:53.878Z,0.70
2018-12-07T15:38:23.842Z,0.70
2018-12-07T15:40:53.696Z,0.23
2018-12-07T15:43:23.515Z,0.40
2018-12-07T15:45:53.245Z,0.93
2018-12-07T15:48:23.057Z,0.43
2018-12-07T15:50:52.940Z,0.40
2018-12-07T15:53:22.757Z,0.50
2018-12-07T15:55:52.666Z,0.50
2018-12-07T15:58:22.713Z,0.57
2018-12-07T16:00:52.880Z,0.50
2018-12-07T16:03:24.535Z,0.40
2018-12-07T16:05:55.932Z,0.80
2018-12-07T16:08:25.754Z,0.50
2018-12-07T16:10:55.742Z,0.50
2018-12-07T16:13:25.923Z,0.50
2018-12-07T16:15:55.820Z,0.17
2018-12-07T16:18:25.782Z,0.40
2018-12-07T16:20:55.779Z,0.40
2018-12-07T16:23:25.799Z,0.20
2018-12-07T16:29:05.918Z,0.60
2018-12-07T16:31:36.569Z,0.20
2018-12-07T16:34:06.447Z,0.40
2018-12-07T16:36:36.320Z,0.50
2018-12-07T16:39:46.521Z,0.40
2018-12-07T16:42:16.642Z,0.40
2018-12-07T16:44:46.412Z,0.37
2018-12-07T16:47:16.326Z,0.40
2018-12-07T16:49:46.281Z,0.70
2018-12-07T16:52:16.097Z,0.30
2018-12-07T16:54:46.073Z,0.30
2018-12-07T16:57:16.428Z,0.40
2018-12-07T16:59:46.618Z,0.40
2018-12-07T17:02:16.658Z,0.50
2018-12-07T17:04:46.626Z,0.60
2018-12-07T17:07:18.212Z,0.80
2018-12-07T17:09:48.472Z,0.67
2018-12-07T17:12:18.319Z,0.40
2018-12-07T17:14:48.127Z,0.37
2018-12-07T17:17:18.098Z,0.33
2018-12-07T17:19:47.970Z,0.30
2018-12-07T17:22:17.858Z,0.40
2018-12-07T17:24:47.677Z,0.50
2018-12-07T17:27:17.555Z,0.57
2018-12-07T17:29:47.444Z,1.40
2018-12-07T17:32:17.179Z,0.80
2018-12-07T17:34:46.950Z,1.53
2018-12-07T17:37:16.778Z,2.03
2018-12-07T17:39:47.219Z,1.03
2018-12-07T17:42:18.723Z,1.00
2018-12-07T17:44:48.789Z,0.50
2018-12-07T17:47:18.796Z,0.40
2018-12-07T17:49:48.781Z,0.67
2018-12-07T17:52:18.499Z,0.30
2018-12-07T17:54:48.902Z,1.23
2018-12-07T17:57:19.063Z,0.70
2018-12-07T17:59:48.864Z,0.60
2018-12-07T18:02:18.743Z,0.53
2018-12-07T18:04:48.861Z,0.60
2018-12-07T18:07:18.661Z,0.40
2018-12-07T18:09:48.826Z,0.77
2018-12-07T18:12:18.894Z,0.90
2018-12-07T18:14:48.765Z,1.40
2018-12-07T18:17:18.530Z,1.03
2018-12-07T18:19:49.052Z,1.07
2018-12-07T18:22:19.094Z,0.97
2018-12-07T18:24:50.820Z,0.83
2018-12-07T18:27:20.676Z,1.17
2018-12-07T18:29:50.647Z,1.33
2018-12-07T18:32:20.595Z,0.83
2018-12-07T18:34:50.862Z,1.37
2018-12-07T18:37:20.909Z,1.00
2018-12-07T18:40:09.658Z,0.97
2018-12-07T18:42:39.492Z,0.97
2018-12-07T18:45:09.487Z,0.83
2018-12-07T18:47:39.373Z,0.60
2018-12-07T18:50:30.249Z,1.23
2018-12-07T18:53:00.079Z,1.20
2018-12-07T18:55:30.146Z,0.83
2018-12-07T18:57:59.932Z,1.13
2018-12-07T19:00:30.176Z,1.83
2018-12-07T19:03:00.509Z,1.17
2018-12-07T19:05:30.317Z,1.20
2018-12-07T19:08:00.499Z,1.70
2018-12-07T19:10:30.771Z,1.80
2018-12-07T19:13:00.600Z,1.70
2018-12-07T19:21:14.478Z,0.90
2018-12-07T19:23:44.586Z,1.20
2018-12-07T19:26:16.892Z,1.27
2018-12-07T19:28:50.824Z,2.37
2018-12-07T19:34:03.064Z,1.10
2018-12-07T19:39:13.268Z,1.90
2018-12-07T19:52:31.462Z,2.00
2018-12-07T20:02:47.997Z,2.97
2018-12-07T20:40:06.564Z,1.60
2018-12-07T20:50:32.817Z,2.43
2018-12-07T21:07:05.972Z,2.37
2018-12-07T21:20:02.360Z,2.63
2018-12-07T21:22:33.863Z,2.70
2018-12-07T21:27:41.711Z,2.77
2018-12-07T21:30:51.153Z,1.80
2018-12-07T21:34:02.729Z,1.70
2018-12-07T21:39:06.418Z,2.70
2018-12-07T21:41:36.348Z,2.90
2018-12-07T21:44:06.554Z,2.50
2018-12-07T21:46:33.486Z,4.07
2018-12-07T21:49:03.272Z,3.43
2018-12-07T22:12:48.567Z,2.93
2018-12-07T22:15:18.693Z,1.97
2018-12-07T22:23:09.309Z,2.50
2018-12-07T22:25:39.635Z,2.17
2018-12-07T22:57:31.052Z,1.97
2018-12-07T23:02:31.795Z,2.03
2018-12-07T23:48:19.809Z,1.80
2018-12-07T23:50:49.590Z,2.30
2018-12-07T23:56:01.755Z,2.73
2018-12-07T23:58:32.146Z,2.10
